Pine, Colorado
Current Conditions -  °F | °C
As of 6:53 PM on Wednesday 22 Oct 2014 (Local Time) from KAPA Reporting Station
Scattered Clouds Scattered Clouds  
Wind Chill: 58°   Ceiling: Unl
Heat Index: 58°   Visibility: 10mi
Dew Point: 40°   Wind: 6mph
Humidity: 51%   Direction: 50°NE
Pressure: 30.14"   Gusts: NA
Location:  39.41°N, 105.32°W
Report Text: KAPA 230053Z 05005KT 10SM SCT120 SCT150 14/04 A3014 RMK AO2 SLP180 VIRGA DSNT S AND N T01440044
Loading
Personal Weather Stations






























Interactive Weather Map
Tropical Storm Tracking
New forecast layout! Learn more

10-Day Weather Forecast

Advertisements
Track Severe Weather on mobile